createdAt,value
2023-04-25T00:00:07.953Z,5.33
2023-04-25T00:02:40.317Z,5.63
2023-04-25T00:05:10.698Z,5.33
2023-04-25T00:07:38.889Z,6.13
2023-04-25T00:10:08.922Z,5.73
2023-04-25T00:12:36.971Z,5.80
2023-04-25T00:15:05.465Z,5.97
2023-04-25T00:17:33.584Z,5.63
2023-04-25T00:20:01.939Z,6.33
2023-04-25T00:22:31.943Z,6.20
2023-04-25T00:25:01.354Z,6.20
2023-04-25T00:27:29.460Z,5.60
2023-04-25T00:29:57.851Z,5.97
2023-04-25T00:32:26.084Z,6.00
2023-04-25T00:34:54.202Z,6.20
2023-04-25T00:37:22.539Z,6.17
2023-04-25T00:39:52.015Z,6.30
2023-04-25T00:42:20.087Z,6.33
2023-04-25T00:44:49.134Z,6.43
2023-04-25T00:47:17.265Z,6.77
2023-04-25T00:49:45.819Z,6.07
2023-04-25T00:52:14.330Z,6.67
2023-04-25T00:54:42.426Z,6.33
2023-04-25T00:57:11.921Z,6.87
2023-04-25T00:59:39.952Z,7.43
2023-04-25T01:02:08.348Z,7.27
2023-04-25T01:04:36.708Z,7.20
2023-04-25T01:07:04.908Z,6.43
2023-04-25T01:09:33.116Z,6.93
2023-04-25T01:12:02.150Z,6.53
2023-04-25T01:14:31.715Z,6.50
2023-04-25T01:17:00.181Z,6.27
2023-04-25T01:19:28.427Z,6.20
2023-04-25T01:21:57.907Z,5.47
2023-04-25T01:24:26.905Z,5.73
2023-04-25T01:26:57.266Z,6.33
2023-04-25T01:29:26.467Z,5.77
2023-04-25T01:31:55.311Z,6.03
2023-04-25T01:34:23.521Z,5.93
2023-04-25T01:36:51.838Z,5.47
2023-04-25T01:39:21.355Z,6.17
2023-04-25T01:41:49.877Z,5.30
2023-04-25T01:44:18.432Z,5.97
2023-04-25T01:46:46.630Z,6.17
2023-04-25T01:49:14.708Z,6.37
2023-04-25T01:51:45.060Z,6.37
2023-04-25T01:54:13.448Z,6.33
2023-04-25T01:56:42.896Z,6.43
2023-04-25T01:59:13.026Z,6.13
2023-04-25T02:01:59.636Z,6.87
2023-04-25T02:04:32.697Z,6.27
2023-04-25T02:07:01.257Z,6.67
2023-04-25T02:09:38.367Z,6.93
2023-04-25T02:12:11.836Z,6.97
2023-04-25T02:15:07.283Z,6.53
2023-04-25T02:17:40.654Z,7.17
2023-04-25T02:20:09.449Z,7.77
2023-04-25T02:22:37.767Z,7.30
2023-04-25T02:25:09.128Z,7.30
2023-04-25T02:27:39.315Z,6.60
2023-04-25T02:30:10.165Z,7.10
2023-04-25T02:32:38.661Z,7.37
2023-04-25T02:35:07.664Z,7.50
2023-04-25T02:37:36.229Z,7.40
2023-04-25T02:40:05.166Z,7.83
2023-04-25T02:42:33.578Z,7.90
2023-04-25T02:45:03.335Z,7.50
2023-04-25T02:47:31.770Z,7.43
2023-04-25T02:49:59.921Z,8.00
2023-04-25T02:52:28.834Z,6.70
2023-04-25T02:55:05.058Z,8.07
2023-04-25T02:57:34.675Z,7.37
2023-04-25T03:00:06.541Z,7.77
2023-04-25T03:02:34.742Z,7.63
2023-04-25T03:05:04.267Z,8.10
2023-04-25T03:07:33.246Z,7.93
2023-04-25T03:10:01.351Z,7.20
2023-04-25T03:12:31.907Z,7.20
2023-04-25T03:15:00.117Z,7.67
2023-04-25T03:17:29.740Z,7.27
2023-04-25T03:19:59.689Z,7.67
2023-04-25T03:22:27.784Z,7.30
2023-04-25T03:24:55.900Z,7.40
2023-04-25T03:27:24.023Z,7.27
2023-04-25T03:29:53.164Z,7.20
2023-04-25T03:32:21.931Z,6.80
2023-04-25T03:34:53.035Z,6.70
2023-04-25T03:37:21.176Z,7.33
2023-04-25T03:39:49.216Z,6.40
2023-04-25T03:42:17.934Z,6.53
2023-04-25T03:44:46.838Z,6.43
2023-04-25T03:47:16.142Z,6.60
2023-04-25T03:49:44.264Z,6.13
2023-04-25T03:52:13.797Z,6.00
2023-04-25T03:54:42.697Z,6.70
2023-04-25T03:57:17.448Z,5.90
2023-04-25T03:59:46.190Z,5.50
2023-04-25T04:02:16.197Z,5.23
2023-04-25T04:04:45.777Z,6.10
2023-04-25T04:07:15.982Z,6.57
2023-04-25T04:09:47.612Z,6.03
2023-04-25T04:12:21.889Z,6.10
2023-04-25T04:14:50.355Z,7.17
2023-04-25T04:17:18.573Z,6.60
2023-04-25T04:19:46.899Z,7.07
2023-04-25T04:22:21.875Z,7.27
2023-04-25T04:24:51.026Z,6.83
2023-04-25T04:27:25.084Z,6.97
2023-04-25T04:30:09.417Z,7.47
2023-04-25T04:32:53.705Z,6.93
2023-04-25T04:35:22.974Z,6.77
2023-04-25T04:37:52.464Z,7.40
2023-04-25T04:40:22.860Z,6.93
2023-04-25T04:42:57.513Z,6.63
2023-04-25T04:45:41.481Z,7.50
2023-04-25T04:48:29.219Z,6.53
2023-04-25T04:51:15.819Z,6.87
2023-04-25T04:53:59.458Z,7.03
2023-04-25T04:56:53.488Z,7.23
2023-04-25T04:59:48.175Z,7.07
2023-04-25T05:02:40.183Z,7.50
2023-04-25T05:05:28.713Z,7.93
2023-04-25T05:08:15.449Z,8.20
2023-04-25T05:10:57.295Z,8.83
2023-04-25T05:13:36.723Z,7.90
2023-04-25T05:16:21.238Z,7.63
2023-04-25T05:18:54.804Z,7.87
2023-04-25T05:21:44.180Z,8.17
2023-04-25T05:24:26.274Z,7.50
2023-04-25T05:27:14.512Z,8.83
2023-04-25T05:30:01.396Z,8.30
2023-04-25T05:32:49.477Z,6.87
2023-04-25T05:35:18.345Z,7.93
2023-04-25T05:37:49.514Z,8.73
2023-04-25T05:40:17.926Z,7.37
2023-04-25T05:42:47.350Z,7.40
2023-04-25T05:45:34.006Z,6.70
2023-04-25T05:48:37.894Z,7.17
2023-04-25T05:51:19.805Z,7.17
2023-04-25T05:54:06.584Z,6.80
2023-04-25T05:56:35.951Z,5.93
2023-04-25T05:59:05.516Z,5.60
2023-04-25T06:01:34.016Z,5.30
2023-04-25T06:04:03.007Z,4.40
2023-04-25T06:06:31.555Z,4.37
2023-04-25T06:09:01.464Z,3.80
2023-04-25T06:11:29.542Z,3.80
2023-04-25T06:13:58.026Z,3.87
2023-04-25T06:16:28.114Z,3.80
2023-04-25T06:18:56.209Z,3.80
2023-04-25T06:21:24.430Z,4.57
2023-04-25T06:23:53.568Z,4.50
2023-04-25T06:26:25.549Z,4.10
2023-04-25T06:28:54.147Z,4.70
2023-04-25T06:31:22.380Z,6.30
2023-04-25T06:33:55.863Z,4.97
2023-04-25T06:36:28.717Z,4.63
2023-04-25T06:39:03.315Z,3.87
2023-04-25T06:41:31.787Z,4.20
2023-04-25T06:44:03.364Z,7.67
2023-04-25T06:46:35.339Z,5.97
2023-04-25T06:49:04.960Z,4.60
2023-04-25T06:51:33.087Z,4.50
2023-04-25T06:54:01.522Z,4.57
2023-04-25T06:56:36.411Z,4.57
2023-04-25T06:59:10.143Z,3.77
2023-04-25T07:01:40.175Z,3.90
2023-04-25T07:04:15.406Z,4.37
2023-04-25T07:06:50.417Z,4.30
2023-04-25T07:09:22.926Z,4.83
2023-04-25T07:11:52.214Z,4.57
2023-04-25T07:14:20.237Z,4.50
2023-04-25T07:16:48.395Z,4.50
2023-04-25T07:19:18.304Z,4.70
2023-04-25T07:21:47.205Z,4.10
2023-04-25T07:24:15.291Z,4.60
2023-04-25T07:26:47.534Z,4.97
2023-04-25T07:29:44.756Z,4.63
2023-04-25T07:32:14.587Z,4.43
2023-04-25T07:34:45.981Z,5.10
2023-04-25T07:37:15.098Z,4.90
2023-04-25T07:39:57.958Z,4.33
2023-04-25T07:42:26.141Z,4.50
2023-04-25T07:44:54.293Z,4.57
2023-04-25T07:47:22.531Z,4.47
2023-04-25T07:49:53.395Z,4.60
2023-04-25T07:52:22.650Z,4.23
2023-04-25T07:54:55.997Z,4.40
2023-04-25T07:57:31.845Z,4.73
2023-04-25T08:00:00.143Z,4.53
2023-04-25T08:02:30.696Z,4.37
2023-04-25T08:05:00.735Z,4.80
2023-04-25T08:07:29.142Z,5.03
2023-04-25T08:10:02.214Z,4.30
2023-04-25T08:12:34.816Z,4.73
2023-04-25T08:15:03.582Z,4.50
2023-04-25T08:17:36.332Z,4.37
2023-04-25T08:20:07.441Z,4.70
2023-04-25T08:22:36.583Z,4.83
2023-04-25T08:25:33.861Z,5.20
2023-04-25T08:28:03.902Z,4.97
2023-04-25T08:30:33.129Z,5.67
2023-04-25T08:33:01.629Z,5.50
2023-04-25T08:36:00.518Z,5.43
2023-04-25T08:38:29.563Z,5.90
2023-04-25T08:40:57.803Z,5.90
2023-04-25T08:43:26.734Z,5.53
2023-04-25T08:45:55.206Z,4.80
2023-04-25T08:48:37.916Z,5.77
2023-04-25T08:53:38.612Z,5.30
2023-04-25T08:56:07.706Z,5.37
2023-04-25T08:58:38.001Z,4.97
2023-04-25T09:01:06.355Z,4.83
2023-04-25T09:03:42.449Z,5.00
2023-04-25T09:06:12.657Z,5.00
2023-04-25T09:08:41.613Z,4.43
2023-04-25T09:11:10.599Z,4.97
2023-04-25T09:13:38.783Z,4.03
2023-04-25T09:16:28.706Z,3.73
2023-04-25T09:19:38.133Z,4.00
2023-04-25T09:22:09.844Z,4.20
2023-04-25T09:24:39.739Z,4.07
2023-04-25T09:27:08.928Z,3.80
2023-04-25T09:29:38.773Z,3.70
2023-04-25T09:32:14.062Z,4.80
2023-04-25T09:34:43.167Z,3.80
2023-04-25T09:37:13.038Z,4.20
2023-04-25T09:40:04.007Z,3.87
2023-04-25T09:42:35.594Z,4.10
2023-04-25T09:45:03.996Z,3.77
2023-04-25T09:47:39.028Z,3.43
2023-04-25T09:50:16.103Z,3.97
2023-04-25T09:52:48.354Z,4.10
2023-04-25T09:55:24.022Z,3.43
2023-04-25T09:57:52.302Z,3.20
2023-04-25T10:00:22.364Z,3.37
2023-04-25T10:02:50.490Z,3.10
2023-04-25T10:05:38.804Z,2.67
2023-04-25T10:08:09.757Z,2.63
2023-04-25T10:10:39.539Z,2.60
2023-04-25T10:13:08.660Z,2.67
2023-04-25T10:15:39.866Z,2.60
2023-04-25T10:18:08.899Z,2.80
2023-04-25T10:20:37.498Z,3.30
2023-04-25T10:23:09.072Z,3.20
2023-04-25T10:25:37.156Z,4.30
2023-04-25T10:28:06.214Z,4.70
2023-04-25T10:30:34.516Z,4.17
2023-04-25T10:33:03.227Z,3.47
2023-04-25T10:35:32.675Z,3.73
2023-04-25T10:38:05.804Z,3.73
2023-04-25T10:40:35.512Z,4.00
2023-04-25T10:43:43.350Z,4.23
2023-04-25T10:46:21.162Z,3.53
2023-04-25T10:48:51.052Z,3.93
2023-04-25T10:51:23.079Z,3.63
2023-04-25T10:54:01.454Z,3.90
2023-04-25T10:56:32.164Z,4.10
2023-04-25T10:59:11.199Z,3.40
2023-04-25T11:01:43.258Z,3.53
2023-04-25T11:04:24.342Z,3.37
2023-04-25T11:07:12.652Z,3.20
2023-04-25T11:09:41.480Z,3.20
2023-04-25T11:12:12.750Z,3.10
2023-04-25T11:14:41.792Z,3.63
2023-04-25T11:17:10.169Z,3.17
2023-04-25T11:19:38.375Z,2.97
2023-04-25T11:22:07.832Z,3.13
2023-04-25T11:24:36.537Z,2.90
2023-04-25T11:27:05.067Z,3.17
2023-04-25T11:29:36.047Z,3.53
2023-04-25T11:32:04.353Z,3.33
2023-04-25T11:34:33.798Z,3.87
2023-04-25T11:37:02.853Z,4.00
2023-04-25T11:39:31.288Z,3.67
2023-04-25T11:42:01.198Z,3.73
2023-04-25T11:44:29.808Z,4.27
2023-04-25T11:46:59.304Z,4.13
2023-04-25T11:49:27.426Z,4.17
2023-04-25T11:51:55.945Z,3.80
2023-04-25T11:54:24.300Z,4.10
2023-04-25T11:56:52.931Z,4.00
2023-04-25T11:59:20.978Z,3.63
2023-04-25T12:01:50.834Z,3.57
2023-04-25T12:04:21.560Z,3.30
2023-04-25T12:06:50.839Z,3.77
2023-04-25T12:09:20.225Z,3.40
2023-04-25T12:11:48.950Z,3.60
2023-04-25T12:14:23.082Z,3.70
2023-04-25T12:16:52.295Z,3.60
2023-04-25T12:19:22.286Z,3.27
2023-04-25T12:21:58.046Z,3.30
2023-04-25T12:24:28.970Z,3.20
2023-04-25T12:27:01.952Z,3.03
2023-04-25T12:29:34.795Z,3.23
2023-04-25T12:32:10.490Z,2.87
2023-04-25T12:34:40.188Z,2.73
2023-04-25T12:37:08.667Z,3.00
2023-04-25T12:39:36.800Z,2.83
2023-04-25T12:42:07.763Z,2.83
2023-04-25T12:44:37.589Z,2.80
2023-04-25T12:47:06.485Z,2.60
2023-04-25T12:49:35.306Z,2.40
2023-04-25T12:52:04.873Z,2.23
2023-04-25T12:54:33.141Z,2.03
2023-04-25T12:57:03.902Z,2.30
2023-04-25T12:59:32.313Z,2.20
2023-04-25T13:02:00.463Z,2.33
2023-04-25T13:04:29.439Z,2.17
2023-04-25T13:06:57.610Z,2.03
2023-04-25T13:09:27.123Z,2.40
2023-04-25T13:11:57.240Z,2.40
2023-04-25T13:14:27.308Z,2.77
2023-04-25T13:16:56.118Z,2.60
2023-04-25T13:19:24.247Z,2.40
2023-04-25T13:21:52.452Z,2.57
2023-04-25T13:24:20.521Z,3.20
2023-04-25T13:26:50.227Z,2.50
2023-04-25T13:29:18.266Z,3.13
2023-04-25T13:31:46.872Z,2.97
2023-04-25T13:34:14.953Z,2.90
2023-04-25T13:36:43.095Z,2.40
2023-04-25T13:39:13.268Z,2.33
2023-04-25T13:41:41.480Z,2.80
2023-04-25T13:44:11.499Z,2.70
2023-04-25T13:46:46.974Z,2.60
2023-04-25T13:49:16.551Z,2.27
2023-04-25T13:51:44.770Z,2.43
2023-04-25T13:54:12.904Z,2.47
2023-04-25T13:56:43.134Z,2.80
2023-04-25T13:59:13.601Z,2.77
2023-04-25T14:01:41.926Z,2.60
2023-04-25T14:04:10.041Z,2.67
2023-04-25T14:06:38.599Z,2.30
2023-04-25T14:09:07.967Z,2.20
2023-04-25T14:11:36.238Z,2.70
2023-04-25T14:14:05.091Z,2.60
2023-04-25T14:16:34.775Z,2.47
2023-04-25T14:19:03.024Z,2.57
2023-04-25T14:21:32.747Z,2.40
2023-04-25T14:24:00.898Z,2.87
2023-04-25T14:26:28.975Z,2.73
2023-04-25T14:28:57.528Z,2.43
2023-04-25T14:31:25.666Z,2.80
2023-04-25T14:33:57.692Z,2.83
2023-04-25T14:36:28.417Z,3.03
2023-04-25T14:38:56.520Z,2.80
2023-04-25T14:41:25.188Z,2.50
2023-04-25T14:43:53.908Z,2.87
2023-04-25T14:46:23.224Z,2.70
2023-04-25T14:48:51.445Z,2.83
2023-04-25T14:51:21.197Z,3.30
2023-04-25T14:53:49.941Z,3.00
2023-04-25T14:56:18.246Z,3.87
2023-04-25T14:58:46.490Z,3.37
2023-04-25T15:01:15.098Z,2.77
2023-04-25T15:03:43.797Z,3.07
2023-04-25T15:06:12.134Z,3.27
2023-04-25T15:08:41.987Z,2.80
2023-04-25T15:11:10.066Z,3.20
2023-04-25T15:13:38.081Z,3.27
2023-04-25T15:16:07.143Z,4.07
2023-04-25T15:18:35.257Z,3.17
2023-04-25T15:21:03.428Z,3.33
2023-04-25T15:23:31.530Z,3.17
2023-04-25T15:26:00.986Z,2.90
2023-04-25T15:28:29.127Z,2.80
2023-04-25T15:30:57.257Z,2.47
2023-04-25T15:33:25.328Z,3.17
2023-04-25T15:35:53.671Z,3.17
2023-04-25T15:38:21.864Z,3.53
2023-04-25T15:40:50.056Z,3.20
2023-04-25T15:43:19.668Z,2.90
2023-04-25T15:45:47.709Z,2.97
2023-04-25T15:48:16.386Z,3.40
2023-04-25T15:50:44.464Z,3.23
2023-04-25T15:53:12.581Z,3.20
2023-04-25T15:55:40.849Z,3.03
2023-04-25T15:58:11.380Z,3.73
2023-04-25T16:00:42.784Z,3.13
2023-04-25T16:03:11.572Z,2.60
2023-04-25T16:05:39.749Z,2.80
2023-04-25T16:08:08.270Z,2.90
2023-04-25T16:10:36.679Z,2.57
2023-04-25T16:13:04.742Z,2.40
2023-04-25T16:15:35.324Z,2.90
2023-04-25T16:18:05.592Z,2.60
2023-04-25T16:20:34.050Z,2.50
2023-04-25T16:23:02.145Z,3.07
2023-04-25T16:25:30.208Z,5.13
2023-04-25T16:27:58.751Z,2.50
2023-04-25T16:30:27.052Z,2.67
2023-04-25T16:32:57.484Z,3.07
2023-04-25T16:35:30.499Z,2.67
2023-04-25T16:37:58.566Z,2.50
2023-04-25T16:40:26.713Z,3.20
2023-04-25T16:42:55.115Z,2.73
2023-04-25T16:45:24.374Z,2.43
2023-04-25T16:47:52.501Z,2.90
2023-04-25T16:50:20.718Z,3.10
2023-04-25T16:52:51.133Z,2.70
2023-04-25T16:55:19.730Z,3.37
2023-04-25T16:57:47.873Z,2.33
2023-04-25T17:00:18.271Z,3.07
2023-04-25T17:02:47.306Z,2.37
2023-04-25T17:05:15.974Z,3.43
2023-04-25T17:07:44.087Z,2.60
2023-04-25T17:10:14.026Z,2.50
2023-04-25T17:12:42.368Z,2.60
2023-04-25T17:15:11.630Z,2.43
2023-04-25T17:17:39.695Z,2.50
2023-04-25T17:20:09.994Z,2.43
2023-04-25T17:22:38.698Z,2.87
2023-04-25T17:25:08.196Z,2.97
2023-04-25T17:27:37.758Z,2.30
2023-04-25T17:30:07.202Z,2.90
2023-04-25T17:32:35.655Z,3.07
2023-04-25T17:35:04.165Z,2.23
2023-04-25T17:37:32.761Z,2.60
2023-04-25T17:40:00.817Z,2.70
2023-04-25T17:42:29.260Z,2.50
2023-04-25T17:44:58.737Z,3.10
2023-04-25T17:47:26.929Z,3.03
2023-04-25T17:49:56.576Z,2.53
2023-04-25T17:52:25.759Z,2.90
2023-04-25T17:54:53.883Z,2.60
2023-04-25T17:57:24.381Z,2.27
2023-04-25T17:59:52.664Z,3.17
2023-04-25T18:02:22.710Z,2.50
2023-04-25T18:04:51.519Z,3.00
2023-04-25T18:07:19.692Z,2.90
2023-04-25T18:09:47.845Z,2.73
2023-04-25T18:12:16.788Z,2.53
2023-04-25T18:14:45.906Z,2.97
2023-04-25T18:17:14.642Z,2.90
2023-04-25T18:19:44.849Z,2.30
2023-04-25T18:22:13.224Z,2.47
2023-04-25T18:24:41.336Z,2.40
2023-04-25T18:27:10.194Z,2.60
2023-04-25T18:29:38.606Z,2.20
2023-04-25T18:32:07.376Z,3.13
2023-04-25T18:34:35.595Z,2.20
2023-04-25T18:37:05.335Z,2.83
2023-04-25T18:39:33.434Z,2.57
2023-04-25T18:42:06.472Z,2.20
2023-04-25T18:44:39.748Z,2.40
2023-04-25T18:47:08.438Z,2.57
2023-04-25T18:49:37.573Z,2.30
2023-04-25T18:52:08.664Z,2.40
2023-04-25T18:54:37.094Z,2.63
2023-04-25T18:57:06.318Z,2.43
2023-04-25T18:59:34.850Z,2.20
2023-04-25T19:02:05.352Z,2.43
2023-04-25T19:04:34.139Z,2.40
2023-04-25T19:07:02.660Z,2.40
2023-04-25T19:09:32.571Z,2.50
2023-04-25T19:12:02.531Z,2.57
2023-04-25T19:14:32.313Z,2.23
2023-04-25T19:17:00.728Z,2.50
2023-04-25T19:19:29.279Z,2.47
2023-04-25T19:21:57.398Z,2.30
2023-04-25T19:24:25.610Z,2.90
2023-04-25T19:26:55.932Z,2.50
2023-04-25T19:29:24.131Z,2.60
2023-04-25T19:31:52.256Z,2.63
2023-04-25T19:34:20.497Z,2.50
2023-04-25T19:36:48.947Z,2.23
2023-04-25T19:39:17.455Z,2.63
2023-04-25T19:41:46.619Z,2.57
2023-04-25T19:44:16.212Z,2.60
2023-04-25T19:46:46.574Z,2.20
2023-04-25T19:49:14.822Z,2.63
2023-04-25T19:51:43.562Z,2.50
2023-04-25T19:54:11.695Z,2.60
2023-04-25T19:56:39.817Z,2.10
2023-04-25T19:59:07.961Z,2.20
2023-04-25T20:01:38.512Z,2.33
2023-04-25T20:04:06.816Z,2.50
2023-04-25T20:06:35.698Z,2.60
2023-04-25T20:09:04.011Z,3.03
2023-04-25T20:11:32.331Z,3.00
2023-04-25T20:14:00.708Z,2.87
2023-04-25T20:16:28.866Z,2.60
2023-04-25T20:18:58.887Z,2.57
2023-04-25T20:21:27.435Z,2.20
2023-04-25T20:23:55.490Z,2.53
2023-04-25T20:26:25.873Z,2.80
2023-04-25T20:28:54.166Z,2.33
2023-04-25T20:31:22.448Z,2.77
2023-04-25T20:33:50.876Z,2.80
2023-04-25T20:36:20.646Z,2.27
2023-04-25T20:38:48.773Z,2.10
2023-04-25T20:41:16.981Z,2.50
2023-04-25T20:43:46.064Z,2.60
2023-04-25T20:46:14.220Z,2.20
2023-04-25T20:48:42.849Z,2.97
2023-04-25T20:51:11.966Z,2.63
2023-04-25T20:53:41.485Z,3.10
2023-04-25T20:56:10.911Z,2.80
2023-04-25T20:58:38.985Z,2.80
2023-04-25T21:01:08.219Z,3.40
2023-04-25T21:03:36.792Z,2.90
2023-04-25T21:06:05.233Z,2.90
2023-04-25T21:08:33.286Z,3.10
2023-04-25T21:11:02.722Z,2.93
2023-04-25T21:13:30.845Z,3.23
2023-04-25T21:15:59.333Z,2.80
2023-04-25T21:18:27.747Z,3.27
2023-04-25T21:20:55.801Z,2.93
2023-04-25T21:23:23.961Z,3.30
2023-04-25T21:25:54.049Z,3.30
2023-04-25T21:28:25.093Z,3.50
2023-04-25T21:30:53.278Z,3.63
2023-04-25T21:33:21.367Z,3.83
2023-04-25T21:35:49.443Z,3.17
2023-04-25T21:38:17.542Z,3.47
2023-04-25T21:40:45.950Z,3.70
2023-04-25T21:43:14.397Z,3.50
2023-04-25T21:46:06.364Z,3.50
2023-04-25T21:48:31.979Z,3.40
2023-04-25T21:51:00.041Z,3.23
2023-04-25T21:53:28.142Z,3.50
2023-04-25T21:55:56.709Z,3.20
2023-04-25T21:58:27.497Z,4.30
2023-04-25T22:00:57.806Z,3.83
2023-04-25T22:03:26.267Z,3.20
2023-04-25T22:05:54.540Z,3.40
2023-04-25T22:08:23.204Z,3.37
2023-04-25T22:10:51.272Z,3.40
2023-04-25T22:13:20.324Z,3.10
2023-04-25T22:15:48.871Z,3.10
2023-04-25T22:18:19.773Z,3.10
2023-04-25T22:20:48.194Z,3.03
2023-04-25T22:23:17.098Z,2.60
2023-04-25T22:25:45.228Z,3.10
2023-04-25T22:28:13.346Z,3.10
2023-04-25T22:30:41.489Z,2.83
2023-04-25T22:33:09.673Z,2.67
2023-04-25T22:35:40.316Z,2.83
2023-04-25T22:38:08.663Z,3.30
2023-04-25T22:40:36.853Z,2.97
2023-04-25T22:43:05.348Z,3.03
2023-04-25T22:45:34.474Z,3.00
2023-04-25T22:48:02.586Z,2.90
2023-04-25T22:50:31.110Z,2.80
2023-04-25T22:53:00.714Z,2.80
2023-04-25T22:55:28.824Z,2.80
2023-04-25T22:57:56.930Z,2.50
2023-04-25T23:00:26.317Z,3.00
2023-04-25T23:02:55.096Z,2.93
2023-04-25T23:05:24.526Z,2.60
2023-04-25T23:07:52.708Z,2.73
2023-04-25T23:10:22.503Z,2.73
2023-04-25T23:12:50.585Z,2.47
2023-04-25T23:15:19.803Z,2.53
2023-04-25T23:17:48.347Z,2.87
2023-04-25T23:20:16.637Z,2.73
2023-04-25T23:22:44.691Z,2.20
2023-04-25T23:25:13.050Z,2.90
2023-04-25T23:27:43.143Z,2.43
2023-04-25T23:30:11.771Z,2.57
2023-04-25T23:32:40.345Z,3.00
2023-04-25T23:35:09.069Z,2.50
2023-04-25T23:37:37.380Z,2.67
2023-04-25T23:40:08.596Z,2.47
2023-04-25T23:42:36.756Z,2.70
2023-04-25T23:45:08.617Z,3.03
2023-04-25T23:47:37.560Z,2.27
2023-04-25T23:50:06.519Z,2.40
2023-04-25T23:52:34.593Z,2.57
2023-04-25T23:55:05.428Z,2.80
2023-04-25T23:57:33.574Z,2.43
